sensor_id;sensor_type;location;lat;lon;timestamp;temperature;humidity
53844;DHT22;39744;53.314;5.710;2022-10-30T00:00:30;13.40;99.90
53844;DHT22;39744;53.314;5.710;2022-10-30T00:02:55;13.30;99.90
53844;DHT22;39744;53.314;5.710;2022-10-30T00:05:22;13.40;99.90
53844;DHT22;39744;53.314;5.710;2022-10-30T00:07:48;13.30;99.90
53844;DHT22;39744;53.314;5.710;2022-10-30T00:10:15;13.30;99.90
53844;DHT22;39744;53.314;5.710;2022-10-30T00:12:41;13.30;99.90
53844;DHT22;39744;53.314;5.710;2022-10-30T00:15:07;13.30;99.90
53844;DHT22;39744;53.314;5.710;2022-10-30T00:17:33;13.20;99.90
53844;DHT22;39744;53.314;5.710;2022-10-30T00:19:59;13.20;99.90
53844;DHT22;39744;53.314;5.710;2022-10-30T00:22:24;13.20;99.90
53844;DHT22;39744;53.314;5.710;2022-10-30T00:24:50;13.20;99.90
53844;DHT22;39744;53.314;5.710;2022-10-30T00:27:15;13.20;99.90
53844;DHT22;39744;53.314;5.710;2022-10-30T00:29:41;13.10;99.90
53844;DHT22;39744;53.314;5.710;2022-10-30T00:32:07;13.20;99.90
53844;DHT22;39744;53.314;5.710;2022-10-30T00:34:33;13.10;99.90
53844;DHT22;39744;53.314;5.710;2022-10-30T00:36:58;13.10;99.90
53844;DHT22;39744;53.314;5.710;2022-10-30T00:39:24;13.10;99.90
53844;DHT22;39744;53.314;5.710;2022-10-30T00:41:50;13.10;99.90
53844;DHT22;39744;53.314;5.710;2022-10-30T00:47:02;13.10;99.90
53844;DHT22;39744;53.314;5.710;2022-10-30T00:49:36;13.10;99.90
53844;DHT22;39744;53.314;5.710;2022-10-30T00:52:04;13.10;99.90
53844;DHT22;39744;53.314;5.710;2022-10-30T00:54:33;13.10;99.90
53844;DHT22;39744;53.314;5.710;2022-10-30T00:57:00;13.10;99.90
53844;DHT22;39744;53.314;5.710;2022-10-30T00:59:29;13.10;99.90
53844;DHT22;39744;53.314;5.710;2022-10-30T01:01:57;13.10;99.90
53844;DHT22;39744;53.314;5.710;2022-10-30T01:04:25;13.10;99.90
53844;DHT22;39744;53.314;5.710;2022-10-30T01:06:52;13.00;99.90
53844;DHT22;39744;53.314;5.710;2022-10-30T01:09:21;13.00;99.90
53844;DHT22;39744;53.314;5.710;2022-10-30T01:11:47;13.10;99.90
53844;DHT22;39744;53.314;5.710;2022-10-30T01:14:16;13.10;99.90
53844;DHT22;39744;53.314;5.710;2022-10-30T01:17:02;13.10;99.90
53844;DHT22;39744;53.314;5.710;2022-10-30T01:19:47;13.10;99.90
53844;DHT22;39744;53.314;5.710;2022-10-30T01:30:29;13.00;99.90
53844;DHT22;39744;53.314;5.710;2022-10-30T01:33:30;13.00;99.90
53844;DHT22;39744;53.314;5.710;2022-10-30T01:38:35;12.90;99.90
53844;DHT22;39744;53.314;5.710;2022-10-30T01:41:03;12.90;99.90
53844;DHT22;39744;53.314;5.710;2022-10-30T01:43:28;12.90;99.90
53844;DHT22;39744;53.314;5.710;2022-10-30T01:46:07;12.80;99.90
53844;DHT22;39744;53.314;5.710;2022-10-30T01:49:01;12.80;99.90
53844;DHT22;39744;53.314;5.710;2022-10-30T02:00:04;12.70;99.90
53844;DHT22;39744;53.314;5.710;2022-10-30T02:02:30;12.70;99.90
53844;DHT22;39744;53.314;5.710;2022-10-30T02:04:57;12.80;99.90
53844;DHT22;39744;53.314;5.710;2022-10-30T02:07:24;12.70;99.90
53844;DHT22;39744;53.314;5.710;2022-10-30T02:09:53;12.70;99.90
53844;DHT22;39744;53.314;5.710;2022-10-30T02:12:20;12.70;99.90
53844;DHT22;39744;53.314;5.710;2022-10-30T02:14:49;12.70;99.90
53844;DHT22;39744;53.314;5.710;2022-10-30T02:17:17;12.70;99.90
53844;DHT22;39744;53.314;5.710;2022-10-30T02:19:42;12.70;99.90
53844;DHT22;39744;53.314;5.710;2022-10-30T02:22:08;12.70;99.90
53844;DHT22;39744;53.314;5.710;2022-10-30T02:24:34;12.70;99.90
53844;DHT22;39744;53.314;5.710;2022-10-30T02:26:59;12.60;99.90
53844;DHT22;39744;53.314;5.710;2022-10-30T02:29:25;12.70;99.90
53844;DHT22;39744;53.314;5.710;2022-10-30T02:31:51;12.70;99.90
53844;DHT22;39744;53.314;5.710;2022-10-30T02:34:16;12.70;99.90
53844;DHT22;39744;53.314;5.710;2022-10-30T02:36:42;12.80;99.90
53844;DHT22;39744;53.314;5.710;2022-10-30T02:39:08;12.80;99.90
53844;DHT22;39744;53.314;5.710;2022-10-30T02:41:34;12.80;99.90
53844;DHT22;39744;53.314;5.710;2022-10-30T02:43:59;12.80;99.90
53844;DHT22;39744;53.314;5.710;2022-10-30T02:46:26;12.80;99.90
53844;DHT22;39744;53.314;5.710;2022-10-30T02:48:51;12.90;99.90
53844;DHT22;39744;53.314;5.710;2022-10-30T02:51:17;12.90;99.90
53844;DHT22;39744;53.314;5.710;2022-10-30T02:53:43;12.90;99.90
53844;DHT22;39744;53.314;5.710;2022-10-30T02:56:11;12.90;99.90
53844;DHT22;39744;53.314;5.710;2022-10-30T02:58:37;12.90;99.90
53844;DHT22;39744;53.314;5.710;2022-10-30T03:01:14;12.90;99.90
53844;DHT22;39744;53.314;5.710;2022-10-30T03:03:40;12.90;99.90
53844;DHT22;39744;53.314;5.710;2022-10-30T03:06:09;12.80;99.90
53844;DHT22;39744;53.314;5.710;2022-10-30T03:08:35;12.80;99.90
53844;DHT22;39744;53.314;5.710;2022-10-30T03:11:09;12.80;99.90
53844;DHT22;39744;53.314;5.710;2022-10-30T03:13:36;12.80;99.90
53844;DHT22;39744;53.314;5.710;2022-10-30T03:16:08;12.80;99.90
53844;DHT22;39744;53.314;5.710;2022-10-30T03:18:34;12.80;99.90
53844;DHT22;39744;53.314;5.710;2022-10-30T03:21:01;12.90;99.90
53844;DHT22;39744;53.314;5.710;2022-10-30T03:23:28;12.90;99.90
53844;DHT22;39744;53.314;5.710;2022-10-30T03:25:55;12.90;99.90
53844;DHT22;39744;53.314;5.710;2022-10-30T03:28:22;13.00;99.90
53844;DHT22;39744;53.314;5.710;2022-10-30T03:30:49;13.00;99.90
53844;DHT22;39744;53.314;5.710;2022-10-30T03:33:14;13.00;99.90
53844;DHT22;39744;53.314;5.710;2022-10-30T03:35:43;13.00;99.90
53844;DHT22;39744;53.314;5.710;2022-10-30T03:38:09;13.00;99.90
53844;DHT22;39744;53.314;5.710;2022-10-30T03:40:35;13.00;99.90
53844;DHT22;39744;53.314;5.710;2022-10-30T03:43:01;13.00;99.90
53844;DHT22;39744;53.314;5.710;2022-10-30T03:45:26;13.00;99.90
53844;DHT22;39744;53.314;5.710;2022-10-30T03:47:52;12.90;99.90
53844;DHT22;39744;53.314;5.710;2022-10-30T03:50:17;12.80;99.90
53844;DHT22;39744;53.314;5.710;2022-10-30T03:52:43;12.70;99.90
53844;DHT22;39744;53.314;5.710;2022-10-30T03:55:09;12.70;99.90
53844;DHT22;39744;53.314;5.710;2022-10-30T03:57:38;12.60;99.90
53844;DHT22;39744;53.314;5.710;2022-10-30T04:00:04;12.60;99.90
53844;DHT22;39744;53.314;5.710;2022-10-30T04:02:30;12.60;99.90
53844;DHT22;39744;53.314;5.710;2022-10-30T04:04:56;12.60;99.90
53844;DHT22;39744;53.314;5.710;2022-10-30T04:07:21;12.50;99.90
53844;DHT22;39744;53.314;5.710;2022-10-30T04:09:47;12.50;99.90
53844;DHT22;39744;53.314;5.710;2022-10-30T04:12:13;12.40;99.90
53844;DHT22;39744;53.314;5.710;2022-10-30T04:14:38;12.40;99.90
53844;DHT22;39744;53.314;5.710;2022-10-30T04:17:04;12.40;99.90
53844;DHT22;39744;53.314;5.710;2022-10-30T04:19:31;12.30;99.90
53844;DHT22;39744;53.314;5.710;2022-10-30T04:21:56;12.30;99.90
53844;DHT22;39744;53.314;5.710;2022-10-30T04:24:22;12.30;99.90
53844;DHT22;39744;53.314;5.710;2022-10-30T04:26:48;12.20;99.90
53844;DHT22;39744;53.314;5.710;2022-10-30T04:29:13;12.20;99.90
53844;DHT22;39744;53.314;5.710;2022-10-30T04:31:39;12.20;99.90
53844;DHT22;39744;53.314;5.710;2022-10-30T04:34:05;12.20;99.90
53844;DHT22;39744;53.314;5.710;2022-10-30T04:36:30;12.20;99.90
53844;DHT22;39744;53.314;5.710;2022-10-30T04:38:59;12.10;99.90
53844;DHT22;39744;53.314;5.710;2022-10-30T04:41:24;12.10;99.90
53844;DHT22;39744;53.314;5.710;2022-10-30T04:43:50;12.10;99.90
53844;DHT22;39744;53.314;5.710;2022-10-30T04:46:16;12.10;99.90
53844;DHT22;39744;53.314;5.710;2022-10-30T04:48:42;12.10;99.90
53844;DHT22;39744;53.314;5.710;2022-10-30T04:51:08;12.10;99.90
53844;DHT22;39744;53.314;5.710;2022-10-30T04:53:39;12.10;99.90
53844;DHT22;39744;53.314;5.710;2022-10-30T04:56:05;12.10;99.90
53844;DHT22;39744;53.314;5.710;2022-10-30T04:58:30;12.00;99.90
53844;DHT22;39744;53.314;5.710;2022-10-30T05:01:01;12.00;99.90
53844;DHT22;39744;53.314;5.710;2022-10-30T05:03:27;12.00;99.90
53844;DHT22;39744;53.314;5.710;2022-10-30T05:06:01;12.00;99.90
53844;DHT22;39744;53.314;5.710;2022-10-30T05:08:28;11.90;99.90
53844;DHT22;39744;53.314;5.710;2022-10-30T05:10:54;11.90;99.90
53844;DHT22;39744;53.314;5.710;2022-10-30T05:13:21;11.90;99.90
53844;DHT22;39744;53.314;5.710;2022-10-30T05:15:46;11.90;99.90
53844;DHT22;39744;53.314;5.710;2022-10-30T05:18:12;11.90;99.90
53844;DHT22;39744;53.314;5.710;2022-10-30T05:20:38;11.80;99.90
53844;DHT22;39744;53.314;5.710;2022-10-30T05:23:04;11.80;99.90
53844;DHT22;39744;53.314;5.710;2022-10-30T05:25:30;11.80;99.90
53844;DHT22;39744;53.314;5.710;2022-10-30T05:28:04;11.80;99.90
53844;DHT22;39744;53.314;5.710;2022-10-30T05:30:31;11.80;99.90
53844;DHT22;39744;53.314;5.710;2022-10-30T05:35:24;11.80;99.90
53844;DHT22;39744;53.314;5.710;2022-10-30T05:37:50;11.70;99.90
53844;DHT22;39744;53.314;5.710;2022-10-30T05:40:16;11.70;99.90
53844;DHT22;39744;53.314;5.710;2022-10-30T05:42:48;11.60;99.90
53844;DHT22;39744;53.314;5.710;2022-10-30T05:45:14;11.60;99.90
53844;DHT22;39744;53.314;5.710;2022-10-30T05:47:40;11.60;99.90
53844;DHT22;39744;53.314;5.710;2022-10-30T05:50:06;11.50;99.90
53844;DHT22;39744;53.314;5.710;2022-10-30T05:52:34;11.50;99.90
53844;DHT22;39744;53.314;5.710;2022-10-30T05:55:00;11.60;99.90
53844;DHT22;39744;53.314;5.710;2022-10-30T05:57:29;11.50;99.90
53844;DHT22;39744;53.314;5.710;2022-10-30T05:59:57;11.50;99.90
53844;DHT22;39744;53.314;5.710;2022-10-30T06:02:23;11.50;99.90
53844;DHT22;39744;53.314;5.710;2022-10-30T06:04:48;11.50;99.90
53844;DHT22;39744;53.314;5.710;2022-10-30T06:07:14;11.40;99.90
53844;DHT22;39744;53.314;5.710;2022-10-30T06:09:39;11.40;99.90
53844;DHT22;39744;53.314;5.710;2022-10-30T06:12:05;11.40;99.90
53844;DHT22;39744;53.314;5.710;2022-10-30T06:14:31;11.50;99.90
53844;DHT22;39744;53.314;5.710;2022-10-30T06:16:56;11.50;99.90
53844;DHT22;39744;53.314;5.710;2022-10-30T06:19:22;11.50;99.90
53844;DHT22;39744;53.314;5.710;2022-10-30T06:21:47;11.60;99.90
53844;DHT22;39744;53.314;5.710;2022-10-30T06:24:13;11.60;99.90
53844;DHT22;39744;53.314;5.710;2022-10-30T06:26:39;11.60;99.90
53844;DHT22;39744;53.314;5.710;2022-10-30T06:29:05;11.60;99.90
53844;DHT22;39744;53.314;5.710;2022-10-30T06:31:31;11.60;99.90
53844;DHT22;39744;53.314;5.710;2022-10-30T06:33:56;11.50;99.90
53844;DHT22;39744;53.314;5.710;2022-10-30T06:36:22;11.50;99.90
53844;DHT22;39744;53.314;5.710;2022-10-30T06:38:47;11.50;99.90
53844;DHT22;39744;53.314;5.710;2022-10-30T06:41:13;11.50;99.90
53844;DHT22;39744;53.314;5.710;2022-10-30T06:43:39;11.50;99.90
53844;DHT22;39744;53.314;5.710;2022-10-30T06:46:05;11.50;99.90
53844;DHT22;39744;53.314;5.710;2022-10-30T06:48:30;11.50;99.90
53844;DHT22;39744;53.314;5.710;2022-10-30T06:50:57;11.50;99.90
53844;DHT22;39744;53.314;5.710;2022-10-30T06:53:23;11.60;99.90
53844;DHT22;39744;53.314;5.710;2022-10-30T06:56:00;11.60;99.90
53844;DHT22;39744;53.314;5.710;2022-10-30T06:58:27;11.70;99.90
53844;DHT22;39744;53.314;5.710;2022-10-30T07:00:53;11.70;99.90
53844;DHT22;39744;53.314;5.710;2022-10-30T07:03:19;11.80;99.90
53844;DHT22;39744;53.314;5.710;2022-10-30T07:05:45;11.80;99.90
53844;DHT22;39744;53.314;5.710;2022-10-30T07:08:11;11.90;99.90
53844;DHT22;39744;53.314;5.710;2022-10-30T07:10:37;11.90;99.90
53844;DHT22;39744;53.314;5.710;2022-10-30T07:13:03;11.90;99.90
53844;DHT22;39744;53.314;5.710;2022-10-30T07:15:28;12.00;99.90
53844;DHT22;39744;53.314;5.710;2022-10-30T07:17:55;12.00;99.90
53844;DHT22;39744;53.314;5.710;2022-10-30T07:20:21;12.00;99.90
53844;DHT22;39744;53.314;5.710;2022-10-30T07:22:47;12.00;99.90
53844;DHT22;39744;53.314;5.710;2022-10-30T07:25:12;12.00;99.90
53844;DHT22;39744;53.314;5.710;2022-10-30T07:27:49;12.10;99.90
53844;DHT22;39744;53.314;5.710;2022-10-30T07:30:17;12.10;99.90
53844;DHT22;39744;53.314;5.710;2022-10-30T07:32:43;12.20;99.90
53844;DHT22;39744;53.314;5.710;2022-10-30T07:35:10;12.30;99.90
53844;DHT22;39744;53.314;5.710;2022-10-30T07:37:37;12.30;99.90
53844;DHT22;39744;53.314;5.710;2022-10-30T07:40:02;12.30;99.90
53844;DHT22;39744;53.314;5.710;2022-10-30T07:42:28;12.40;99.90
53844;DHT22;39744;53.314;5.710;2022-10-30T07:44:54;12.50;99.90
53844;DHT22;39744;53.314;5.710;2022-10-30T07:47:19;12.50;99.90
53844;DHT22;39744;53.314;5.710;2022-10-30T07:49:45;12.60;99.90
53844;DHT22;39744;53.314;5.710;2022-10-30T07:52:11;12.60;99.90
53844;DHT22;39744;53.314;5.710;2022-10-30T07:54:36;12.70;99.90
53844;DHT22;39744;53.314;5.710;2022-10-30T07:57:02;12.70;99.90
53844;DHT22;39744;53.314;5.710;2022-10-30T07:59:28;12.80;99.90
53844;DHT22;39744;53.314;5.710;2022-10-30T08:01:53;12.90;99.90
53844;DHT22;39744;53.314;5.710;2022-10-30T08:04:19;12.90;99.90
53844;DHT22;39744;53.314;5.710;2022-10-30T08:06:44;13.00;99.90
53844;DHT22;39744;53.314;5.710;2022-10-30T08:09:10;13.10;99.90
53844;DHT22;39744;53.314;5.710;2022-10-30T08:11:35;13.10;99.90
53844;DHT22;39744;53.314;5.710;2022-10-30T08:14:01;13.20;99.90
53844;DHT22;39744;53.314;5.710;2022-10-30T08:16:27;13.30;99.90
53844;DHT22;39744;53.314;5.710;2022-10-30T08:18:53;13.30;99.90
53844;DHT22;39744;53.314;5.710;2022-10-30T08:21:19;13.50;99.90
53844;DHT22;39744;53.314;5.710;2022-10-30T08:23:45;13.50;99.90
53844;DHT22;39744;53.314;5.710;2022-10-30T08:26:10;13.60;99.90
53844;DHT22;39744;53.314;5.710;2022-10-30T08:28:36;13.70;99.90
53844;DHT22;39744;53.314;5.710;2022-10-30T08:31:01;13.80;99.90
53844;DHT22;39744;53.314;5.710;2022-10-30T08:33:28;13.90;99.90
53844;DHT22;39744;53.314;5.710;2022-10-30T08:35:55;14.00;99.90
53844;DHT22;39744;53.314;5.710;2022-10-30T08:38:22;14.10;99.90
53844;DHT22;39744;53.314;5.710;2022-10-30T08:40:48;14.10;99.90
53844;DHT22;39744;53.314;5.710;2022-10-30T08:43:14;14.20;99.90
53844;DHT22;39744;53.314;5.710;2022-10-30T08:45:40;14.40;99.90
53844;DHT22;39744;53.314;5.710;2022-10-30T08:48:08;14.50;99.90
53844;DHT22;39744;53.314;5.710;2022-10-30T08:50:34;14.50;99.90
53844;DHT22;39744;53.314;5.710;2022-10-30T08:53:05;14.60;99.90
53844;DHT22;39744;53.314;5.710;2022-10-30T08:55:31;14.70;99.90
53844;DHT22;39744;53.314;5.710;2022-10-30T08:57:57;14.80;99.90
53844;DHT22;39744;53.314;5.710;2022-10-30T09:00:23;14.90;99.90
53844;DHT22;39744;53.314;5.710;2022-10-30T09:02:49;14.90;99.90
53844;DHT22;39744;53.314;5.710;2022-10-30T09:05:15;15.00;99.90
53844;DHT22;39744;53.314;5.710;2022-10-30T09:07:41;14.90;99.90
53844;DHT22;39744;53.314;5.710;2022-10-30T09:10:07;15.10;99.90
53844;DHT22;39744;53.314;5.710;2022-10-30T09:12:33;15.20;99.90
53844;DHT22;39744;53.314;5.710;2022-10-30T09:14:58;15.20;99.90
53844;DHT22;39744;53.314;5.710;2022-10-30T09:17:24;15.40;99.90
53844;DHT22;39744;53.314;5.710;2022-10-30T09:19:50;15.50;99.90
53844;DHT22;39744;53.314;5.710;2022-10-30T09:22:15;15.60;99.90
53844;DHT22;39744;53.314;5.710;2022-10-30T09:24:41;15.60;99.90
53844;DHT22;39744;53.314;5.710;2022-10-30T09:27:07;15.70;99.90
53844;DHT22;39744;53.314;5.710;2022-10-30T09:29:33;15.60;99.90
53844;DHT22;39744;53.314;5.710;2022-10-30T09:32:00;15.70;99.90
53844;DHT22;39744;53.314;5.710;2022-10-30T09:34:26;15.80;99.90
53844;DHT22;39744;53.314;5.710;2022-10-30T09:36:51;15.90;99.90
53844;DHT22;39744;53.314;5.710;2022-10-30T09:39:17;16.00;99.90
53844;DHT22;39744;53.314;5.710;2022-10-30T09:48:10;16.30;99.90
53844;DHT22;39744;53.314;5.710;2022-10-30T09:51:37;16.40;99.90
53844;DHT22;39744;53.314;5.710;2022-10-30T09:54:38;16.50;99.90
53844;DHT22;39744;53.314;5.710;2022-10-30T09:57:08;16.60;99.90
53844;DHT22;39744;53.314;5.710;2022-10-30T10:05:02;16.80;99.90
53844;DHT22;39744;53.314;5.710;2022-10-30T10:07:35;16.90;99.90
53844;DHT22;39744;53.314;5.710;2022-10-30T10:10:12;17.00;99.90
53844;DHT22;39744;53.314;5.710;2022-10-30T10:12:47;17.00;99.90
53844;DHT22;39744;53.314;5.710;2022-10-30T10:15:38;17.10;99.90
53844;DHT22;39744;53.314;5.710;2022-10-30T10:18:16;17.10;99.90
53844;DHT22;39744;53.314;5.710;2022-10-30T10:20:46;17.20;99.90
53844;DHT22;39744;53.314;5.710;2022-10-30T10:23:21;17.30;99.90
53844;DHT22;39744;53.314;5.710;2022-10-30T10:25:52;17.40;99.90
53844;DHT22;39744;53.314;5.710;2022-10-30T10:28:51;17.50;99.90
53844;DHT22;39744;53.314;5.710;2022-10-30T10:40:17;17.70;99.90
53844;DHT22;39744;53.314;5.710;2022-10-30T10:46:23;17.90;99.90
53844;DHT22;39744;53.314;5.710;2022-10-30T10:48:57;17.90;99.90
53844;DHT22;39744;53.314;5.710;2022-10-30T10:51:32;17.90;99.90
53844;DHT22;39744;53.314;5.710;2022-10-30T10:54:05;17.90;99.90
53844;DHT22;39744;53.314;5.710;2022-10-30T10:56:40;18.00;99.90
53844;DHT22;39744;53.314;5.710;2022-10-30T10:59:15;18.10;99.90
53844;DHT22;39744;53.314;5.710;2022-10-30T11:01:48;18.10;99.90
53844;DHT22;39744;53.314;5.710;2022-10-30T11:04:37;18.20;99.90
53844;DHT22;39744;53.314;5.710;2022-10-30T11:09:43;18.40;99.90
53844;DHT22;39744;53.314;5.710;2022-10-30T11:12:10;18.40;99.90
53844;DHT22;39744;53.314;5.710;2022-10-30T11:14:36;18.40;99.90
53844;DHT22;39744;53.314;5.710;2022-10-30T11:17:31;18.40;99.90
53844;DHT22;39744;53.314;5.710;2022-10-30T11:20:04;18.40;99.90
53844;DHT22;39744;53.314;5.710;2022-10-30T11:22:43;18.50;99.90
53844;DHT22;39744;53.314;5.710;2022-10-30T11:25:20;18.50;99.90
53844;DHT22;39744;53.314;5.710;2022-10-30T11:27:55;18.60;99.90
53844;DHT22;39744;53.314;5.710;2022-10-30T11:30:25;18.60;99.90
53844;DHT22;39744;53.314;5.710;2022-10-30T11:32:53;18.70;99.90
53844;DHT22;39744;53.314;5.710;2022-10-30T11:35:22;18.50;99.90
53844;DHT22;39744;53.314;5.710;2022-10-30T11:37:50;18.50;99.90
53844;DHT22;39744;53.314;5.710;2022-10-30T11:40:19;18.60;99.90
53844;DHT22;39744;53.314;5.710;2022-10-30T11:42:48;18.70;99.90
53844;DHT22;39744;53.314;5.710;2022-10-30T11:45:23;18.70;99.90
53844;DHT22;39744;53.314;5.710;2022-10-30T11:47:48;18.80;99.90
53844;DHT22;39744;53.314;5.710;2022-10-30T11:50:23;18.80;99.90
53844;DHT22;39744;53.314;5.710;2022-10-30T11:52:52;18.80;99.90
53844;DHT22;39744;53.314;5.710;2022-10-30T11:55:39;18.70;99.90
53844;DHT22;39744;53.314;5.710;2022-10-30T11:58:06;18.70;99.90
53844;DHT22;39744;53.314;5.710;2022-10-30T12:00:36;18.70;99.90
53844;DHT22;39744;53.314;5.710;2022-10-30T12:03:28;18.70;99.90
53844;DHT22;39744;53.314;5.710;2022-10-30T12:11:34;18.90;99.90
53844;DHT22;39744;53.314;5.710;2022-10-30T12:14:02;19.00;99.90
53844;DHT22;39744;53.314;5.710;2022-10-30T12:16:28;19.10;99.90
53844;DHT22;39744;53.314;5.710;2022-10-30T12:21:26;19.20;99.90
53844;DHT22;39744;53.314;5.710;2022-10-30T12:24:01;19.20;99.90
53844;DHT22;39744;53.314;5.710;2022-10-30T12:26:33;19.20;99.90
53844;DHT22;39744;53.314;5.710;2022-10-30T12:29:02;19.20;99.90
53844;DHT22;39744;53.314;5.710;2022-10-30T12:31:52;19.10;99.90
53844;DHT22;39744;53.314;5.710;2022-10-30T12:37:16;19.00;99.90
53844;DHT22;39744;53.314;5.710;2022-10-30T12:39:48;19.00;99.90
53844;DHT22;39744;53.314;5.710;2022-10-30T12:42:18;19.00;99.90
53844;DHT22;39744;53.314;5.710;2022-10-30T12:45:07;19.10;99.90
53844;DHT22;39744;53.314;5.710;2022-10-30T12:47:44;19.10;99.90
53844;DHT22;39744;53.314;5.710;2022-10-30T12:52:49;19.20;99.90
53844;DHT22;39744;53.314;5.710;2022-10-30T12:55:24;19.30;99.90
53844;DHT22;39744;53.314;5.710;2022-10-30T12:58:13;19.30;99.90
53844;DHT22;39744;53.314;5.710;2022-10-30T13:03:59;19.20;99.90
53844;DHT22;39744;53.314;5.710;2022-10-30T13:06:35;19.10;99.90
53844;DHT22;39744;53.314;5.710;2022-10-30T13:11:58;18.90;99.90
53844;DHT22;39744;53.314;5.710;2022-10-30T13:14:39;18.80;99.90
53844;DHT22;39744;53.314;5.710;2022-10-30T13:17:13;18.80;99.90
53844;DHT22;39744;53.314;5.710;2022-10-30T13:19:40;18.70;99.90
53844;DHT22;39744;53.314;5.710;2022-10-30T13:22:25;18.70;99.90
53844;DHT22;39744;53.314;5.710;2022-10-30T13:25:00;18.70;99.90
53844;DHT22;39744;53.314;5.710;2022-10-30T13:27:41;18.70;99.90
53844;DHT22;39744;53.314;5.710;2022-10-30T13:30:14;18.70;99.90
53844;DHT22;39744;53.314;5.710;2022-10-30T13:35:22;18.60;99.90
53844;DHT22;39744;53.314;5.710;2022-10-30T13:52:32;18.30;99.90
53844;DHT22;39744;53.314;5.710;2022-10-30T13:55:14;18.30;99.90
53844;DHT22;39744;53.314;5.710;2022-10-30T14:01:00;18.20;99.90
53844;DHT22;39744;53.314;5.710;2022-10-30T14:06:52;18.10;99.90
53844;DHT22;39744;53.314;5.710;2022-10-30T14:09:31;18.00;99.90
53844;DHT22;39744;53.314;5.710;2022-10-30T14:15:12;17.90;99.90
53844;DHT22;39744;53.314;5.710;2022-10-30T14:20:48;17.80;99.90
53844;DHT22;39744;53.314;5.710;2022-10-30T14:23:33;17.70;99.90
53844;DHT22;39744;53.314;5.710;2022-10-30T14:28:33;17.60;99.90
53844;DHT22;39744;53.314;5.710;2022-10-30T14:31:06;17.60;99.90
53844;DHT22;39744;53.314;5.710;2022-10-30T14:41:44;17.60;99.90
53844;DHT22;39744;53.314;5.710;2022-10-30T14:55:54;17.50;99.90
53844;DHT22;39744;53.314;5.710;2022-10-30T14:58:30;17.50;99.90
53844;DHT22;39744;53.314;5.710;2022-10-30T15:03:40;17.40;99.90
53844;DHT22;39744;53.314;5.710;2022-10-30T15:15:12;17.30;99.90
53844;DHT22;39744;53.314;5.710;2022-10-30T15:17:42;17.30;99.90
53844;DHT22;39744;53.314;5.710;2022-10-30T15:20:20;17.30;99.90
53844;DHT22;39744;53.314;5.710;2022-10-30T15:22:50;17.20;99.90
53844;DHT22;39744;53.314;5.710;2022-10-30T15:25:21;17.20;99.90
53844;DHT22;39744;53.314;5.710;2022-10-30T15:27:53;17.20;99.90
53844;DHT22;39744;53.314;5.710;2022-10-30T15:30:23;17.20;99.90
53844;DHT22;39744;53.314;5.710;2022-10-30T15:32:49;17.20;99.90
53844;DHT22;39744;53.314;5.710;2022-10-30T15:35:20;17.20;99.90
53844;DHT22;39744;53.314;5.710;2022-10-30T15:38:06;17.10;99.90
53844;DHT22;39744;53.314;5.710;2022-10-30T15:40:41;17.10;99.90
53844;DHT22;39744;53.314;5.710;2022-10-30T15:43:11;17.00;99.90
53844;DHT22;39744;53.314;5.710;2022-10-30T15:45:39;17.10;99.90
53844;DHT22;39744;53.314;5.710;2022-10-30T15:48:23;17.00;99.90
53844;DHT22;39744;53.314;5.710;2022-10-30T15:51:04;17.00;99.90
53844;DHT22;39744;53.314;5.710;2022-10-30T15:53:38;16.90;99.90
53844;DHT22;39744;53.314;5.710;2022-10-30T15:56:06;16.90;99.90
53844;DHT22;39744;53.314;5.710;2022-10-30T15:58:37;16.90;99.90
53844;DHT22;39744;53.314;5.710;2022-10-30T16:01:02;16.80;99.90
53844;DHT22;39744;53.314;5.710;2022-10-30T16:03:28;16.70;99.90
53844;DHT22;39744;53.314;5.710;2022-10-30T16:06:16;16.70;99.90
53844;DHT22;39744;53.314;5.710;2022-10-30T16:08:44;16.60;99.90
53844;DHT22;39744;53.314;5.710;2022-10-30T16:11:10;16.60;99.90
53844;DHT22;39744;53.314;5.710;2022-10-30T16:13:36;16.50;99.90
53844;DHT22;39744;53.314;5.710;2022-10-30T16:16:02;16.50;99.90
53844;DHT22;39744;53.314;5.710;2022-10-30T16:18:33;16.40;99.90
53844;DHT22;39744;53.314;5.710;2022-10-30T16:21:08;16.30;99.90
53844;DHT22;39744;53.314;5.710;2022-10-30T16:23:45;16.20;99.90
53844;DHT22;39744;53.314;5.710;2022-10-30T16:26:25;16.10;99.90
53844;DHT22;39744;53.314;5.710;2022-10-30T16:28:52;16.10;99.90
53844;DHT22;39744;53.314;5.710;2022-10-30T16:31:17;16.00;99.90
53844;DHT22;39744;53.314;5.710;2022-10-30T16:33:45;16.00;99.90
53844;DHT22;39744;53.314;5.710;2022-10-30T16:36:13;16.00;99.90
53844;DHT22;39744;53.314;5.710;2022-10-30T16:38:43;16.00;99.90
53844;DHT22;39744;53.314;5.710;2022-10-30T16:41:10;15.90;99.90
53844;DHT22;39744;53.314;5.710;2022-10-30T16:43:39;15.90;99.90
53844;DHT22;39744;53.314;5.710;2022-10-30T16:46:33;15.90;99.90
53844;DHT22;39744;53.314;5.710;2022-10-30T16:49:02;15.90;99.90
53844;DHT22;39744;53.314;5.710;2022-10-30T16:51:29;15.90;99.90
53844;DHT22;39744;53.314;5.710;2022-10-30T16:53:55;16.00;99.90
53844;DHT22;39744;53.314;5.710;2022-10-30T16:56:21;16.00;99.90
53844;DHT22;39744;53.314;5.710;2022-10-30T16:58:48;16.00;99.90
53844;DHT22;39744;53.314;5.710;2022-10-30T17:01:14;16.00;99.90
53844;DHT22;39744;53.314;5.710;2022-10-30T17:03:40;16.00;99.90
53844;DHT22;39744;53.314;5.710;2022-10-30T17:06:42;16.00;99.90
53844;DHT22;39744;53.314;5.710;2022-10-30T17:09:25;15.90;99.90
53844;DHT22;39744;53.314;5.710;2022-10-30T17:14:46;15.90;99.90
53844;DHT22;39744;53.314;5.710;2022-10-30T17:17:33;15.80;99.90
53844;DHT22;39744;53.314;5.710;2022-10-30T17:22:26;15.70;99.90
53844;DHT22;39744;53.314;5.710;2022-10-30T17:24:52;15.70;99.90
53844;DHT22;39744;53.314;5.710;2022-10-30T17:27:45;15.70;99.90
53844;DHT22;39744;53.314;5.710;2022-10-30T17:30:27;15.70;99.90
53844;DHT22;39744;53.314;5.710;2022-10-30T17:32:53;15.60;99.90
53844;DHT22;39744;53.314;5.710;2022-10-30T17:35:19;15.60;99.90
53844;DHT22;39744;53.314;5.710;2022-10-30T17:37:45;15.50;99.90
53844;DHT22;39744;53.314;5.710;2022-10-30T17:40:12;15.50;99.90
53844;DHT22;39744;53.314;5.710;2022-10-30T17:42:38;15.40;99.90
53844;DHT22;39744;53.314;5.710;2022-10-30T17:45:05;15.40;99.90
53844;DHT22;39744;53.314;5.710;2022-10-30T17:47:31;15.40;99.90
53844;DHT22;39744;53.314;5.710;2022-10-30T17:49:57;15.30;99.90
53844;DHT22;39744;53.314;5.710;2022-10-30T17:52:24;15.30;99.90
53844;DHT22;39744;53.314;5.710;2022-10-30T17:54:50;15.30;99.90
53844;DHT22;39744;53.314;5.710;2022-10-30T17:57:15;15.30;99.90
53844;DHT22;39744;53.314;5.710;2022-10-30T17:59:42;15.30;99.90
53844;DHT22;39744;53.314;5.710;2022-10-30T18:02:26;15.30;99.90
53844;DHT22;39744;53.314;5.710;2022-10-30T18:04:51;15.20;99.90